Fairborn, Ohio
Current Conditions -  °F | °C
As of 7:58 PM on Friday 24 Oct 2014 (Local Time) from KFFO Reporting Station
Clear Clear  
Wind Chill: 53°   Ceiling: Unl
Heat Index: 53°   Visibility: 10mi
Dew Point: 40°   Wind: 2mph
Humidity: 61%   Direction: 210°SSW
Pressure: 30.03"   Gusts: NA
Location:  39.83°N, 84.02°W
Report Text: KFFO 242358Z AUTO 21002KT 10SM CLR 12/05 A3003 RMK AO2 SLP175 T01180046 10182 20112 53001
Loading
Personal Weather Stations






























Interactive Weather Map
Tropical Storm Tracking
New forecast layout! Learn more

10-Day Weather Forecast

Advertisements
Track Severe Weather on mobile